PWSweather.com
Personal Weather Stations
Station Observations
IHTIMAN1
Neighbourhood 1, IhtimanBG 2050

Neighbourhood 1IhtimanBG 2050

Lat: 42.436852, Lon: 23.817921

Elevation: 2066

Station Type: Oregon Scientific WMR968

http://ihtiman-meteo.com

High Low Average
Temperature 70.7°F21.5°C 45.9°F7.7°C 57.1°F13.9°C
Dew Point 51.7°F10.9°C 40.6°F4.8°C 47.3°F8.5°C
Winds 11.5 mph 18.5 kmh Calm Calm 4.0 mph S6.4 kmh S
Wind Gusts 19.6 mph31.5 kmh -- 7.0 mph11.3 kmh
Humidity 89% 50% 71%
Pressure 29.77 in1008.1 mb 29.68 in1005.1 mb -
Precipitation 0.00 in0.0 mm - -
Hour Temp Dew Point Humidity Winds Wind Gusts Pressure Precip Precip Rate Daily Precip Total
12:00 AM 49.1°F9.5°C 41.5°F5.3°C 75% 1.2 mph SSE1.9 kmh SSE 2.3 mph3.7 kmh 29.77 in1008.1 mb - 0.00 in0.0 mm 0.00 in0.0 mm
12:10 AM 48.4°F9.1°C 40.9°F4.9°C 75% Calm Calm -- 29.77 in1008.1 mb - 0.00 in0.0 mm 0.00 in0.0 mm
12:20 AM 48.0°F8.9°C 40.8°F4.9°C 76% Calm Calm -- 29.74 in1007.1 mb - 0.00 in0.0 mm 0.00 in0.0 mm
12:30 AM 47.5°F8.6°C 40.6°F4.8°C 77% 3.5 mph NW5.6 kmh NW 4.6 mph7.4 kmh 29.74 in1007.1 mb - 0.00 in0.0 mm 0.00 in0.0 mm
12:40 AM 47.3°F8.5°C 41.1°F5.1°C 79% Calm Calm -- 29.74 in1007.1 mb - 0.00 in0.0 mm 0.00 in0.0 mm
12:50 AM 46.9°F8.3°C 41.1°F5.1°C 80% Calm Calm -- 29.74 in1007.1 mb - 0.00 in0.0 mm 0.00 in0.0 mm
01:00 AM 47.1°F8.4°C 41.9°F5.5°C 82% 1.2 mph W1.9 kmh W 2.3 mph3.7 kmh 29.74 in1007.1 mb - 0.00 in0.0 mm 0.00 in0.0 mm
01:10 AM 47.1°F8.4°C 42.5°F5.8°C 84% Calm Calm -- 29.74 in1007.1 mb - 0.00 in0.0 mm 0.00 in0.0 mm
01:20 AM 46.8°F8.2°C 42.3°F5.7°C 84% Calm Calm -- 29.77 in1008.1 mb - 0.00 in0.0 mm 0.00 in0.0 mm
01:30 AM 46.9°F8.3°C 42.7°F5.9°C 85% 1.2 mph NE1.9 kmh NE 3.5 mph5.6 kmh 29.74 in1007.1 mb - 0.00 in0.0 mm 0.00 in0.0 mm
01:40 AM 47.1°F8.4°C 43.1°F6.2°C 86% 2.3 mph ENE3.7 kmh ENE 3.5 mph5.6 kmh 29.74 in1007.1 mb - 0.00 in0.0 mm 0.00 in0.0 mm
01:50 AM 47.6°F8.7°C 43.6°F6.4°C 86% Calm Calm -- 29.74 in1007.1 mb - 0.00 in0.0 mm 0.00 in0.0 mm
02:00 AM 47.7°F8.7°C 43.7°F6.5°C 86% 2.3 mph SSW3.7 kmh SSW 3.5 mph5.6 kmh 29.74 in1007.1 mb - 0.00 in0.0 mm 0.00 in0.0 mm
02:10 AM 46.8°F8.2°C 42.2°F5.7°C 84% Calm Calm -- 29.74 in1007.1 mb - 0.00 in0.0 mm 0.00 in0.0 mm
02:20 AM 46.1°F7.8°C 41.5°F5.3°C 84% Calm Calm -- 29.74 in1007.1 mb - 0.00 in0.0 mm 0.00 in0.0 mm
02:30 AM 45.9°F7.7°C 41.3°F5.2°C 84% Calm Calm -- 29.74 in1007.1 mb - 0.00 in0.0 mm 0.00 in0.0 mm
02:40 AM 45.9°F7.7°C 41.6°F5.3°C 85% Calm Calm -- 29.74 in1007.1 mb - 0.00 in0.0 mm 0.00 in0.0 mm
02:50 AM 46.4°F8.0°C 42.4°F5.8°C 86% Calm Calm -- 29.74 in1007.1 mb - 0.00 in0.0 mm 0.00 in0.0 mm
03:00 AM 46.8°F8.2°C 42.8°F6.0°C 86% Calm Calm -- 29.74 in1007.1 mb - 0.00 in0.0 mm 0.00 in0.0 mm
03:10 AM 46.9°F8.3°C 43.3°F6.3°C 87% Calm Calm -- 29.74 in1007.1 mb - 0.00 in0.0 mm 0.00 in0.0 mm
03:20 AM 47.1°F8.4°C 43.4°F6.3°C 87% Calm Calm -- 29.74 in1007.1 mb - 0.00 in0.0 mm 0.00 in0.0 mm
03:30 AM 47.3°F8.5°C 43.6°F6.4°C 87% Calm Calm 5.8 mph9.3 kmh 29.74 in1007.1 mb - 0.00 in0.0 mm 0.00 in0.0 mm
03:40 AM 47.5°F8.6°C 43.8°F6.6°C 87% Calm Calm -- 29.74 in1007.1 mb - 0.00 in0.0 mm 0.00 in0.0 mm
03:50 AM 47.7°F8.7°C 44.0°F6.7°C 87% Calm Calm -- 29.74 in1007.1 mb - 0.00 in0.0 mm 0.00 in0.0 mm
04:00 AM 47.8°F8.8°C 44.2°F6.8°C 87% Calm Calm -- 29.71 in1006.1 mb - 0.00 in0.0 mm 0.00 in0.0 mm
04:10 AM 47.8°F8.8°C 44.2°F6.8°C 87% Calm Calm -- 29.71 in1006.1 mb - 0.00 in0.0 mm 0.00 in0.0 mm
04:20 AM 47.7°F8.7°C 44.0°F6.7°C 87% Calm Calm -- 29.71 in1006.1 mb - 0.00 in0.0 mm 0.00 in0.0 mm
04:30 AM 47.3°F8.5°C 43.6°F6.4°C 87% Calm Calm -- 29.71 in1006.1 mb - 0.00 in0.0 mm 0.00 in0.0 mm
04:40 AM 47.3°F8.5°C 43.6°F6.4°C 87% Calm Calm -- 29.71 in1006.1 mb - 0.00 in0.0 mm 0.00 in0.0 mm
04:50 AM 47.3°F8.5°C 43.6°F6.4°C 87% Calm Calm -- 29.71 in1006.1 mb - 0.00 in0.0 mm 0.00 in0.0 mm
05:00 AM 47.5°F8.6°C 44.1°F6.7°C 88% Calm Calm -- 29.71 in1006.1 mb - 0.00 in0.0 mm 0.00 in0.0 mm
05:10 AM 47.8°F8.8°C 44.8°F7.1°C 89% 1.2 mph SE1.9 kmh SE 2.3 mph3.7 kmh 29.71 in1006.1 mb - 0.00 in0.0 mm 0.00 in0.0 mm
05:20 AM 48.4°F9.1°C 45.3°F7.4°C 89% 2.3 mph S3.7 kmh S 3.5 mph5.6 kmh 29.71 in1006.1 mb - 0.00 in0.0 mm 0.00 in0.0 mm
05:30 AM 49.1°F9.5°C 46.0°F7.8°C 89% Calm Calm 2.3 mph3.7 kmh 29.71 in1006.1 mb - 0.00 in0.0 mm 0.00 in0.0 mm
05:40 AM 49.3°F9.6°C 45.9°F7.7°C 88% Calm Calm 3.5 mph5.6 kmh 29.71 in1006.1 mb - 0.00 in0.0 mm 0.00 in0.0 mm
05:50 AM 49.5°F9.7°C 45.8°F7.7°C 87% Calm Calm -- 29.71 in1006.1 mb - 0.00 in0.0 mm 0.00 in0.0 mm
06:00 AM 49.6°F9.8°C 45.6°F7.6°C 86% 2.3 mph SSE3.7 kmh SSE 3.5 mph5.6 kmh 29.71 in1006.1 mb - 0.00 in0.0 mm 0.00 in0.0 mm
06:10 AM 49.6°F9.8°C 45.0°F7.2°C 84% 3.5 mph S5.6 kmh S 3.5 mph5.6 kmh 29.71 in1006.1 mb - 0.00 in0.0 mm 0.00 in0.0 mm
06:20 AM 49.8°F9.9°C 45.2°F7.3°C 84% 4.6 mph S7.4 kmh S 4.6 mph7.4 kmh 29.71 in1006.1 mb - 0.00 in0.0 mm 0.00 in0.0 mm
06:30 AM 50.2°F10.1°C 45.2°F7.3°C 83% 3.5 mph SSE5.6 kmh SSE 5.8 mph9.3 kmh 29.71 in1006.1 mb - 0.00 in0.0 mm 0.00 in0.0 mm
06:40 AM 51.3°F10.7°C 46.0°F7.8°C 82% 4.6 mph SSE7.4 kmh SSE 8.1 mph13.0 kmh 29.71 in1006.1 mb - 0.00 in0.0 mm 0.00 in0.0 mm
06:50 AM 52.1°F11.2°C 45.8°F7.7°C 79% 3.5 mph S5.6 kmh S 5.8 mph9.3 kmh 29.71 in1006.1 mb - 0.00 in0.0 mm 0.00 in0.0 mm
07:00 AM 52.3°F11.3°C 45.7°F7.6°C 78% 4.6 mph S7.4 kmh S 6.9 mph11.1 kmh 29.74 in1007.1 mb - 0.00 in0.0 mm 0.00 in0.0 mm
07:10 AM 52.7°F11.5°C 45.7°F7.6°C 77% 3.5 mph SW5.6 kmh SW 5.8 mph9.3 kmh 29.74 in1007.1 mb - 0.00 in0.0 mm 0.00 in0.0 mm
07:20 AM 51.8°F11.0°C 44.5°F6.9°C 76% 3.5 mph S5.6 kmh S 3.5 mph5.6 kmh 29.74 in1007.1 mb - 0.00 in0.0 mm 0.00 in0.0 mm
07:30 AM 51.4°F10.8°C 44.8°F7.1°C 78% 3.5 mph SSE5.6 kmh SSE 4.6 mph7.4 kmh 29.71 in1006.1 mb - 0.00 in0.0 mm 0.00 in0.0 mm
07:40 AM 51.3°F10.7°C 45.6°F7.6°C 81% 2.3 mph SSE3.7 kmh SSE 3.5 mph5.6 kmh 29.71 in1006.1 mb - 0.00 in0.0 mm 0.00 in0.0 mm
07:50 AM 51.1°F10.6°C 46.4°F8.0°C 84% 1.2 mph ESE1.9 kmh ESE 2.3 mph3.7 kmh 29.71 in1006.1 mb - 0.00 in0.0 mm 0.00 in0.0 mm
08:00 AM 51.5°F10.8°C 47.8°F8.8°C 87% 3.5 mph SSE5.6 kmh SSE 5.8 mph9.3 kmh 29.71 in1006.1 mb - 0.00 in0.0 mm 0.00 in0.0 mm
08:10 AM 52.2°F11.2°C 48.4°F9.1°C 87% 4.6 mph S7.4 kmh S 8.1 mph13.0 kmh 29.71 in1006.1 mb - 0.00 in0.0 mm 0.00 in0.0 mm
08:20 AM 52.0°F11.1°C 48.3°F9.1°C 87% 5.8 mph S9.3 kmh S 8.1 mph13.0 kmh 29.71 in1006.1 mb - 0.00 in0.0 mm 0.00 in0.0 mm
08:30 AM 52.0°F11.1°C 48.3°F9.1°C 87% 4.6 mph S7.4 kmh S 5.8 mph9.3 kmh 29.71 in1006.1 mb - 0.00 in0.0 mm 0.00 in0.0 mm
08:40 AM 52.5°F11.4°C 48.8°F9.3°C 87% 5.8 mph SSE9.3 kmh SSE 8.1 mph13.0 kmh 29.71 in1006.1 mb - 0.00 in0.0 mm 0.00 in0.0 mm
08:50 AM 52.5°F11.4°C 48.8°F9.3°C 87% 5.8 mph SSE9.3 kmh SSE 5.8 mph9.3 kmh 29.71 in1006.1 mb - 0.00 in0.0 mm 0.00 in0.0 mm
09:00 AM 52.7°F11.5°C 48.6°F9.2°C 86% 4.6 mph S7.4 kmh S 6.9 mph11.1 kmh 29.71 in1006.1 mb - 0.00 in0.0 mm 0.00 in0.0 mm
09:10 AM 53.3°F11.8°C 48.9°F9.4°C 85% 4.6 mph SSE7.4 kmh SSE 9.2 mph14.8 kmh 29.71 in1006.1 mb - 0.00 in0.0 mm 0.00 in0.0 mm
09:20 AM 54.2°F12.3°C 48.8°F9.3°C 82% 4.6 mph S7.4 kmh S 8.1 mph13.0 kmh 29.71 in1006.1 mb - 0.00 in0.0 mm 0.00 in0.0 mm
09:30 AM 55.8°F13.2°C 49.1°F9.5°C 78% 6.9 mph S11.1 kmh S 8.1 mph13.0 kmh 29.71 in1006.1 mb - 0.00 in0.0 mm 0.00 in0.0 mm
09:40 AM 57.3°F14.1°C 49.1°F9.5°C 74% 6.9 mph SE11.1 kmh SE 9.2 mph14.8 kmh 29.71 in1006.1 mb - 0.00 in0.0 mm 0.00 in0.0 mm
09:50 AM 58.3°F14.6°C 48.6°F9.2°C 70% 8.1 mph ESE13.0 kmh ESE 11.5 mph18.5 kmh 29.71 in1006.1 mb - 0.00 in0.0 mm 0.00 in0.0 mm
10:00 AM 60.4°F15.8°C 49.4°F9.7°C 67% 8.1 mph ESE13.0 kmh ESE 12.7 mph20.4 kmh 29.71 in1006.1 mb - 0.00 in0.0 mm 0.00 in0.0 mm
10:10 AM 59.3°F15.2°C 47.6°F8.7°C 65% 11.5 mph SE18.5 kmh SE 16.1 mph25.9 kmh 29.71 in1006.1 mb - 0.00 in0.0 mm 0.00 in0.0 mm
10:20 AM 57.4°F14.1°C 46.5°F8.1°C 67% 10.4 mph ESE16.7 kmh ESE 12.7 mph20.4 kmh 29.71 in1006.1 mb - 0.00 in0.0 mm 0.00 in0.0 mm
10:30 AM 60.4°F15.8°C 48.5°F9.2°C 65% 10.4 mph SE16.7 kmh SE 15.0 mph24.1 kmh 29.71 in1006.1 mb - 0.00 in0.0 mm 0.00 in0.0 mm
10:40 AM 60.9°F16.1°C 48.7°F9.3°C 64% 10.4 mph ESE16.7 kmh ESE 12.7 mph20.4 kmh 29.71 in1006.1 mb - 0.00 in0.0 mm 0.00 in0.0 mm
10:50 AM 61.3°F16.3°C 49.0°F9.4°C 64% 8.1 mph ESE13.0 kmh ESE 15.0 mph24.1 kmh 29.71 in1006.1 mb - 0.00 in0.0 mm 0.00 in0.0 mm
11:00 AM 62.5°F16.9°C 50.1°F10.1°C 64% 4.6 mph SE7.4 kmh SE 10.4 mph16.7 kmh 29.71 in1006.1 mb - 0.00 in0.0 mm 0.00 in0.0 mm
11:10 AM 63.5°F17.5°C 50.2°F10.1°C 62% 5.8 mph SE9.3 kmh SE 10.4 mph16.7 kmh 29.71 in1006.1 mb - 0.00 in0.0 mm 0.00 in0.0 mm
11:20 AM 63.3°F17.4°C 49.2°F9.6°C 60% 8.1 mph E13.0 kmh E 15.0 mph24.1 kmh 29.71 in1006.1 mb - 0.00 in0.0 mm 0.00 in0.0 mm
11:30 AM 63.9°F17.7°C 51.0°F10.6°C 63% 4.6 mph ESE7.4 kmh ESE 8.1 mph13.0 kmh 29.71 in1006.1 mb - 0.00 in0.0 mm 0.00 in0.0 mm
11:40 AM 65.3°F18.5°C 51.5°F10.8°C 61% 6.9 mph E11.1 kmh E 17.3 mph27.8 kmh 29.71 in1006.1 mb - 0.00 in0.0 mm 0.00 in0.0 mm
11:50 AM 65.3°F18.5°C 50.6°F10.3°C 59% 9.2 mph ESE14.8 kmh ESE 15.0 mph24.1 kmh 29.71 in1006.1 mb - 0.00 in0.0 mm 0.00 in0.0 mm
12:00 PM 66.4°F19.1°C 50.7°F10.4°C 57% 9.2 mph SE14.8 kmh SE 15.0 mph24.1 kmh 29.71 in1006.1 mb - 0.00 in0.0 mm 0.00 in0.0 mm
12:10 PM 65.7°F18.7°C 50.1°F10.1°C 57% 9.2 mph ESE14.8 kmh ESE 9.2 mph14.8 kmh 29.71 in1006.1 mb - 0.00 in0.0 mm 0.00 in0.0 mm
12:20 PM 66.7°F19.3°C 50.1°F10.1°C 55% 10.4 mph SSE16.7 kmh SSE 10.4 mph16.7 kmh 29.68 in1005.1 mb - 0.00 in0.0 mm 0.00 in0.0 mm
12:30 PM 66.2°F19.0°C 49.5°F9.7°C 55% 9.2 mph SE14.8 kmh SE 11.5 mph18.5 kmh 29.71 in1006.1 mb - 0.00 in0.0 mm 0.00 in0.0 mm
12:40 PM 66.6°F19.2°C 49.9°F9.9°C 55% 11.5 mph ESE18.5 kmh ESE 19.6 mph31.5 kmh 29.71 in1006.1 mb - 0.00 in0.0 mm 0.00 in0.0 mm
12:50 PM 67.8°F19.9°C 51.1°F10.6°C 55% 9.2 mph SE14.8 kmh SE 17.3 mph27.8 kmh 29.71 in1006.1 mb - 0.00 in0.0 mm 0.00 in0.0 mm
01:00 PM 68.4°F20.2°C 50.6°F10.3°C 53% 8.1 mph SE13.0 kmh SE 12.7 mph20.4 kmh 29.71 in1006.1 mb - 0.00 in0.0 mm 0.00 in0.0 mm
01:10 PM 68.5°F20.3°C 50.2°F10.1°C 52% 10.4 mph ESE16.7 kmh ESE 17.3 mph27.8 kmh 29.71 in1006.1 mb - 0.00 in0.0 mm 0.00 in0.0 mm
01:20 PM 69.0°F20.6°C 50.1°F10.1°C 51% 11.5 mph SE18.5 kmh SE 15.0 mph24.1 kmh 29.68 in1005.1 mb - 0.00 in0.0 mm 0.00 in0.0 mm
01:30 PM 70.5°F21.4°C 51.5°F10.8°C 51% 8.1 mph SE13.0 kmh SE 10.4 mph16.7 kmh 29.71 in1006.1 mb - 0.00 in0.0 mm 0.00 in0.0 mm
01:40 PM 69.8°F21.0°C 50.3°F10.2°C 50% 9.2 mph SE14.8 kmh SE 11.5 mph18.5 kmh 29.71 in1006.1 mb - 0.00 in0.0 mm 0.00 in0.0 mm
01:50 PM 67.2°F19.6°C 48.4°F9.1°C 51% 8.1 mph SE13.0 kmh SE 15.0 mph24.1 kmh 29.71 in1006.1 mb - 0.00 in0.0 mm 0.00 in0.0 mm
02:00 PM 66.2°F19.0°C 48.5°F9.2°C 53% 10.4 mph SE16.7 kmh SE 15.0 mph24.1 kmh 29.71 in1006.1 mb - 0.00 in0.0 mm 0.00 in0.0 mm
02:10 PM 69.1°F20.6°C 51.2°F10.7°C 53% 8.1 mph SE13.0 kmh SE 12.7 mph20.4 kmh 29.71 in1006.1 mb - 0.00 in0.0 mm 0.00 in0.0 mm
02:20 PM 69.8°F21.0°C 50.9°F10.5°C 51% 8.1 mph SE13.0 kmh SE 16.1 mph25.9 kmh 29.71 in1006.1 mb - 0.00 in0.0 mm 0.00 in0.0 mm
02:30 PM 70.7°F21.5°C 51.7°F10.9°C 51% 6.9 mph SE11.1 kmh SE 13.8 mph22.2 kmh 29.71 in1006.1 mb - 0.00 in0.0 mm 0.00 in0.0 mm
02:40 PM 68.5°F20.3°C 49.1°F9.5°C 50% 9.2 mph SE14.8 kmh SE 16.1 mph25.9 kmh 29.71 in1006.1 mb - 0.00 in0.0 mm 0.00 in0.0 mm
02:50 PM 68.4°F20.2°C 49.0°F9.4°C 50% 8.1 mph S13.0 kmh S 15.0 mph24.1 kmh 29.71 in1006.1 mb - 0.00 in0.0 mm 0.00 in0.0 mm
03:00 PM 67.4°F19.7°C 48.6°F9.2°C 51% 10.4 mph SE16.7 kmh SE 11.5 mph18.5 kmh 29.68 in1005.1 mb - 0.00 in0.0 mm 0.00 in0.0 mm
03:10 PM 66.9°F19.4°C 48.2°F9.0°C 51% 10.4 mph S16.7 kmh S 19.6 mph31.5 kmh 29.68 in1005.1 mb - 0.00 in0.0 mm 0.00 in0.0 mm
03:20 PM 65.7°F18.7°C 48.6°F9.2°C 54% 5.8 mph S9.3 kmh S 10.4 mph16.7 kmh 29.68 in1005.1 mb - 0.00 in0.0 mm 0.00 in0.0 mm
03:30 PM 65.3°F18.5°C 48.7°F9.3°C 55% 8.1 mph SE13.0 kmh SE 11.5 mph18.5 kmh 29.71 in1006.1 mb - 0.00 in0.0 mm 0.00 in0.0 mm
03:40 PM 64.8°F18.2°C 48.2°F9.0°C 55% 6.9 mph SE11.1 kmh SE 9.2 mph14.8 kmh 29.71 in1006.1 mb - 0.00 in0.0 mm 0.00 in0.0 mm
03:50 PM 64.4°F18.0°C 48.3°F9.1°C 56% 8.1 mph SE13.0 kmh SE 10.4 mph16.7 kmh 29.71 in1006.1 mb - 0.00 in0.0 mm 0.00 in0.0 mm
04:00 PM 64.6°F18.1°C 49.0°F9.4°C 57% 8.1 mph SE13.0 kmh SE 12.7 mph20.4 kmh 29.71 in1006.1 mb - 0.00 in0.0 mm 0.00 in0.0 mm
04:10 PM 64.2°F17.9°C 48.7°F9.3°C 57% 6.9 mph SE11.1 kmh SE 12.7 mph20.4 kmh 29.71 in1006.1 mb - 0.00 in0.0 mm 0.00 in0.0 mm
04:20 PM 63.9°F17.7°C 49.2°F9.6°C 59% 6.9 mph SSE11.1 kmh SSE 9.2 mph14.8 kmh 29.71 in1006.1 mb - 0.00 in0.0 mm 0.00 in0.0 mm
04:30 PM 63.6°F17.6°C 49.0°F9.4°C 59% 8.1 mph SE13.0 kmh SE 9.2 mph14.8 kmh 29.71 in1006.1 mb - 0.00 in0.0 mm 0.00 in0.0 mm
04:40 PM 63.4°F17.4°C 48.8°F9.3°C 59% 8.1 mph SE13.0 kmh SE 11.5 mph18.5 kmh 29.71 in1006.1 mb - 0.00 in0.0 mm 0.00 in0.0 mm
04:50 PM 64.4°F18.0°C 48.9°F9.4°C 57% 11.5 mph SE18.5 kmh SE 15.0 mph24.1 kmh 29.68 in1005.1 mb - 0.00 in0.0 mm 0.00 in0.0 mm
05:00 PM 64.2°F17.9°C 49.1°F9.5°C 58% 6.9 mph SE11.1 kmh SE 9.2 mph14.8 kmh 29.68 in1005.1 mb - 0.00 in0.0 mm 0.00 in0.0 mm
05:10 PM 65.8°F18.8°C 50.1°F10.1°C 57% 8.1 mph SSE13.0 kmh SSE 9.2 mph14.8 kmh 29.68 in1005.1 mb - 0.00 in0.0 mm 0.00 in0.0 mm
05:20 PM 66.4°F19.1°C 49.7°F9.8°C 55% 9.2 mph SE14.8 kmh SE 12.7 mph20.4 kmh 29.68 in1005.1 mb - 0.00 in0.0 mm 0.00 in0.0 mm
05:30 PM 66.0°F18.9°C 49.9°F9.9°C 56% 6.9 mph ESE11.1 kmh ESE 9.2 mph14.8 kmh 29.68 in1005.1 mb - 0.00 in0.0 mm 0.00 in0.0 mm
05:40 PM 65.6°F18.7°C 49.4°F9.7°C 56% 8.1 mph SE13.0 kmh SE 10.4 mph16.7 kmh 29.68 in1005.1 mb - 0.00 in0.0 mm 0.00 in0.0 mm
05:50 PM 65.0°F18.3°C 48.9°F9.4°C 56% 8.1 mph SE13.0 kmh SE 12.7 mph20.4 kmh 29.68 in1005.1 mb - 0.00 in0.0 mm 0.00 in0.0 mm
06:00 PM 63.5°F17.5°C 48.5°F9.2°C 58% 8.1 mph SSE13.0 kmh SSE 10.4 mph16.7 kmh 29.68 in1005.1 mb - 0.00 in0.0 mm 0.00 in0.0 mm
06:10 PM 63.0°F17.2°C 47.9°F8.8°C 58% 8.1 mph SE13.0 kmh SE 12.7 mph20.4 kmh 29.68 in1005.1 mb - 0.00 in0.0 mm 0.00 in0.0 mm
06:20 PM 62.6°F17.0°C 48.5°F9.2°C 60% 5.8 mph SE9.3 kmh SE 5.8 mph9.3 kmh 29.68 in1005.1 mb - 0.00 in0.0 mm 0.00 in0.0 mm
06:30 PM 62.8°F17.1°C 49.1°F9.5°C 61% 6.9 mph SE11.1 kmh SE 9.2 mph14.8 kmh 29.68 in1005.1 mb - 0.00 in0.0 mm 0.00 in0.0 mm
06:40 PM 62.6°F17.0°C 49.0°F9.4°C 61% 4.6 mph S7.4 kmh S 5.8 mph9.3 kmh 29.68 in1005.1 mb - 0.00 in0.0 mm 0.00 in0.0 mm
06:50 PM 62.1°F16.7°C 48.9°F9.4°C 62% 4.6 mph SE7.4 kmh SE 9.2 mph14.8 kmh 29.68 in1005.1 mb - 0.00 in0.0 mm 0.00 in0.0 mm
07:00 PM 61.7°F16.5°C 48.1°F8.9°C 61% 3.5 mph SE5.6 kmh SE 5.8 mph9.3 kmh 29.68 in1005.1 mb - 0.00 in0.0 mm 0.00 in0.0 mm
07:10 PM 61.5°F16.4°C 47.9°F8.8°C 61% 5.8 mph SE9.3 kmh SE 8.1 mph13.0 kmh 29.68 in1005.1 mb - 0.00 in0.0 mm 0.00 in0.0 mm
07:20 PM 61.3°F16.3°C 48.2°F9.0°C 62% 6.9 mph SE11.1 kmh SE 9.2 mph14.8 kmh 29.68 in1005.1 mb - 0.00 in0.0 mm 0.00 in0.0 mm
07:30 PM 61.0°F16.1°C 48.3°F9.1°C 63% 4.6 mph SE7.4 kmh SE 8.1 mph13.0 kmh 29.68 in1005.1 mb - 0.00 in0.0 mm 0.00 in0.0 mm
07:40 PM 60.4°F15.8°C 48.6°F9.2°C 65% 4.6 mph SE7.4 kmh SE 5.8 mph9.3 kmh 29.68 in1005.1 mb - 0.00 in0.0 mm 0.00 in0.0 mm
07:50 PM 59.9°F15.5°C 48.9°F9.4°C 67% 3.5 mph E5.6 kmh E 5.8 mph9.3 kmh 29.68 in1005.1 mb - 0.00 in0.0 mm 0.00 in0.0 mm
08:00 PM 59.4°F15.2°C 49.2°F9.6°C 69% 3.5 mph ESE5.6 kmh ESE 4.6 mph7.4 kmh 29.68 in1005.1 mb - 0.00 in0.0 mm 0.00 in0.0 mm
08:10 PM 59.2°F15.1°C 49.4°F9.7°C 70% 3.5 mph SSE5.6 kmh SSE 5.8 mph9.3 kmh 29.68 in1005.1 mb - 0.00 in0.0 mm 0.00 in0.0 mm
08:20 PM 59.0°F15.0°C 49.6°F9.8°C 71% 3.5 mph SSE5.6 kmh SSE 5.8 mph9.3 kmh 29.68 in1005.1 mb - 0.00 in0.0 mm 0.00 in0.0 mm
08:30 PM 59.4°F15.2°C 49.6°F9.8°C 70% 3.5 mph S5.6 kmh S 5.8 mph9.3 kmh 29.71 in1006.1 mb - 0.00 in0.0 mm 0.00 in0.0 mm
08:40 PM 59.5°F15.3°C 49.7°F9.8°C 70% 4.6 mph SSE7.4 kmh SSE 8.1 mph13.0 kmh 29.71 in1006.1 mb - 0.00 in0.0 mm 0.00 in0.0 mm
08:50 PM 59.5°F15.3°C 49.7°F9.8°C 70% 3.5 mph S5.6 kmh S 4.6 mph7.4 kmh 29.71 in1006.1 mb - 0.00 in0.0 mm 0.00 in0.0 mm
09:00 PM 59.4°F15.2°C 49.6°F9.8°C 70% 3.5 mph S5.6 kmh S 5.8 mph9.3 kmh 29.71 in1006.1 mb - 0.00 in0.0 mm 0.00 in0.0 mm
09:10 PM 59.4°F15.2°C 49.6°F9.8°C 70% 2.3 mph SSE3.7 kmh SSE 3.5 mph5.6 kmh 29.71 in1006.1 mb - 0.00 in0.0 mm 0.00 in0.0 mm
09:20 PM 59.2°F15.1°C 49.4°F9.7°C 70% Calm Calm -- 29.71 in1006.1 mb - 0.00 in0.0 mm 0.00 in0.0 mm
09:30 PM 58.8°F14.9°C 49.1°F9.5°C 70% 2.3 mph E3.7 kmh E 3.5 mph5.6 kmh 29.71 in1006.1 mb - 0.00 in0.0 mm 0.00 in0.0 mm
09:40 PM 58.2°F14.6°C 48.8°F9.3°C 71% 2.3 mph N3.7 kmh N 3.5 mph5.6 kmh 29.71 in1006.1 mb - 0.00 in0.0 mm 0.00 in0.0 mm
09:50 PM 57.6°F14.2°C 48.6°F9.2°C 72% Calm Calm 2.3 mph3.7 kmh 29.71 in1006.1 mb - 0.00 in0.0 mm 0.00 in0.0 mm
10:00 PM 57.3°F14.1°C 49.0°F9.4°C 74% Calm Calm -- 29.71 in1006.1 mb - 0.00 in0.0 mm 0.00 in0.0 mm
10:10 PM 57.1°F13.9°C 49.2°F9.6°C 75% Calm Calm 2.3 mph3.7 kmh 29.71 in1006.1 mb - 0.00 in0.0 mm 0.00 in0.0 mm
10:30 PM 56.7°F13.7°C 49.2°F9.6°C 76% Calm Calm 3.5 mph5.6 kmh 29.71 in1006.1 mb - 0.00 in0.0 mm 0.00 in0.0 mm
10:40 PM 56.3°F13.5°C 49.2°F9.6°C 77% Calm Calm 3.5 mph5.6 kmh 29.71 in1006.1 mb - 0.00 in0.0 mm 0.00 in0.0 mm
10:50 PM 55.9°F13.3°C 49.2°F9.6°C 78% Calm Calm -- 29.71 in1006.1 mb - 0.00 in0.0 mm 0.00 in0.0 mm
11:00 PM 55.4°F13.0°C 49.0°F9.4°C 79% Calm Calm -- 29.71 in1006.1 mb - 0.00 in0.0 mm 0.00 in0.0 mm
11:10 PM 54.8°F12.7°C 49.1°F9.5°C 81% 2.3 mph SSE3.7 kmh SSE 3.5 mph5.6 kmh 29.71 in1006.1 mb - 0.00 in0.0 mm 0.00 in0.0 mm
11:20 PM 54.1°F12.3°C 48.4°F9.1°C 81% Calm Calm -- 29.71 in1006.1 mb - 0.00 in0.0 mm 0.00 in0.0 mm
11:30 PM 53.6°F12.0°C 48.2°F9.0°C 82% Calm Calm -- 29.71 in1006.1 mb - 0.00 in0.0 mm 0.00 in0.0 mm
11:40 PM 53.1°F11.7°C 48.0°F8.9°C 83% Calm Calm 3.5 mph5.6 kmh 29.71 in1006.1 mb - 0.00 in0.0 mm 0.00 in0.0 mm
11:50 PM 52.6°F11.4°C 48.0°F8.9°C 84% Calm Calm -- 29.71 in1006.1 mb - 0.00 in0.0 mm 0.00 in0.0 mm